Ontario, Oregon
Current Conditions -  °F | °C
As of 11:53 PM on Wednesday 22 Oct 2014 (Local Time) from KONO Reporting Station
Overcast Overcast  
Wind Chill: 57°   Ceiling: 7500
Heat Index: 57°   Visibility: 10mi
Dew Point: 42°   Wind: 14mph
Humidity: 57%   Direction: 130°SE
Pressure: 29.98"   Gusts: NA
Location:  44.03°N, 116.96°W
Report Text: KONO 230553Z AUTO 13012KT 10SM BKN075 OVC095 14/06 A2998 RMK AO2 RAE29 SLP155 P0000 60000 T01390056 10150 20128 50004
Loading
Personal Weather Stations






























Interactive Weather Map New forecast layout! Learn more

10-Day Weather Forecast

Advertisements
Track Severe Weather on mobile